This is the latest recevied weather packets stored in our database for station/object Oberstadn. If no packets are shown the sender has not sent any weather packets the latest 10 day(s).
| Time | Temp. | Humidity | Pressure | Rain* | Wind** | Luminosity | Snow |
|---|---|---|---|---|---|---|---|
| 1777980730 | 18.89° C | 64% | 1008 hPa | 0 mm | - | - | - |
| 1777978931 | 18.89° C | 63% | 1007.7 hPa | 0 mm | - | - | - |
| 1777977131 | 18.89° C | 61% | 1007.8 hPa | 0 mm | - | - | - |
| 1777975332 | 18.33° C | 62% | 1008 hPa | 0 mm | - | - | - |
| 1777973532 | 18.33° C | 64% | 1008.1 hPa | 0 mm | - | - | - |
| 1777971732 | 18.33° C | 66% | 1008.1 hPa | 0 mm | - | - | - |
| 1777969931 | 17.78° C | 67% | 1008.4 hPa | 0 mm | - | - | - |
| 1777968131 | 17.78° C | 65% | 1008.4 hPa | 0 mm | - | - | - |
| 1777966330 | 15.56° C | 74% | 1008.7 hPa | 0 mm | - | - | - |
| 1777964532 | 15° C | 73% | 1009 hPa | 0 mm | - | - | - |
| 1777962731 | 12.78° C | 81% | 1009.2 hPa | 0 mm | - | - | - |
| 1777960932 | 8.89° C | 89% | 1009.5 hPa | 0 mm | - | - | - |
| 1777959131 | 7.22° C | 90% | 1009.5 hPa | 0 mm | - | - | - |
| 1777957331 | 5.56° C | 90% | 1009.6 hPa | 0 mm | - | - | - |
| 1777955531 | 5° C | 88% | 1009.7 hPa | 0 mm | - | - | - |
| 1777953731 | 5.56° C | 88% | 1009.7 hPa | 0 mm | - | - | - |
| 1777951931 | 6.11° C | 86% | 1009.8 hPa | 0 mm | - | - | - |
| 1777950133 | 6.67° C | 86% | 1010.1 hPa | 0 mm | - | - | - |
| 1777948331 | 7.22° C | 86% | 1010.2 hPa | 0 mm | - | - | - |
| 1777946531 | 7.78° C | 86% | 1010.6 hPa | 0 mm | - | - | - |
| 1777944731 | 7.78° C | 84% | 1010.8 hPa | 0 mm | - | - | - |
| 1777942931 | 8.89° C | 81% | 1011.1 hPa | 0 mm | - | - | - |
| 1777941129 | 10° C | 79% | 1011.3 hPa | 0 mm | - | - | - |
| 1777939330 | 10.56° C | 78% | 1011.5 hPa | 0 mm | - | - | - |
| 1777937529 | 11.67° C | 77% | 1011.7 hPa | 0 mm | - | - | - |
* Rain since midnight (hover to see other rain measurements)
** Current wind speed in m/s (hover to see current wind gust speed)